Visit the IPS Meteostar Home Page IPSM Kelly Air Force Base FORECAST

San Antonio, Texas

88

98

100

98

98

95

95

95

75
75
75
75
75
75
75

6 miles away at Kelly Air Force Base 15:56 GMT

Weather:

Clear

Wind:

WSW 5 mph

Temperature:

88 ° F

Pressure:

30.13

Dew Point:

72 ° F

Relative Humidity:

58

Feels Like:

95 ° F

Visibility:

10 miles


Aviation Observations:

KSKF 211556Z 25004KT 10SM FEW025 31/22 A3012 RMK AO2A SLPNO ALSTG ESTMD T03130223 $ =

National Weather Service Forecast:
Bexar

bexar- including the city of san antonio
312 AM CDT TUE AUG 21 2018

TODAY

Partly cloudy then becoming mostly sunny late in the morning then becoming partly cloudy then becoming mostly sunny late in the afternoon. Highs in the upper 90s. South winds 5 mph shifting to the southeast in the afternoon.

TONIGHT

Mostly clear. Lows in the mid 70s. Southeast winds 5 to 10 mph.

WEDNESDAY

Mostly sunny. Highs 97-102. South winds 5 mph shifting to the southeast in the afternoon. Highest heat index readings around 107.

WEDNESDAY NIGHT

Mostly clear. Lows in the mid 70s. Southeast winds 5 to 10 mph.

THURSDAY

Mostly sunny. Highs in the upper 90s. South winds 5 to 10 mph.

THURSDAY NIGHT THROUGH FRIDAY NIGHT

Clear. Lows in the mid 70s. Highs in the upper 90s.

SATURDAY AND SATURDAY NIGHT

Mostly clear. Highs in the mid 90s. Lows in the mid 70s.

SUNDAY THROUGH MONDAY

Partly cloudy. Highs in the mid 90s. lows in the mid 70s.


Visit the IPS Meteostar Home Page